createdAt,value
2022-09-07T00:01:58.604Z,92217.50
2022-09-07T00:04:46.234Z,92212.19
2022-09-07T00:07:35.859Z,92212.22
2022-09-07T00:10:23.428Z,92217.28
2022-09-07T00:13:11.028Z,92211.38
2022-09-07T00:15:58.680Z,92215.56
2022-09-07T00:18:46.662Z,92210.91
2022-09-07T00:21:34.339Z,92201.28
2022-09-07T00:24:21.914Z,92204.19
2022-09-07T00:27:09.507Z,92206.44
2022-09-07T00:29:57.079Z,92201.19
2022-09-07T00:32:44.682Z,92191.16
2022-09-07T00:35:32.267Z,92201.81
2022-09-07T00:38:19.876Z,92191.59
2022-09-07T00:41:07.464Z,92201.41
2022-09-07T00:43:55.089Z,92201.19
2022-09-07T00:46:44.718Z,92188.72
2022-09-07T00:49:32.450Z,92205.03
2022-09-07T00:52:20.045Z,92206.44
2022-09-07T00:55:07.654Z,92205.31
2022-09-07T00:57:55.227Z,92202.25
2022-09-07T01:00:42.825Z,92192.03
2022-09-07T01:03:30.424Z,92192.03
2022-09-07T01:06:18.049Z,92183.59
2022-09-07T01:09:05.635Z,92181.63
2022-09-07T01:11:53.241Z,92180.03
2022-09-07T01:14:40.891Z,92175.91
2022-09-07T01:17:28.469Z,92181.81
2022-09-07T01:20:16.166Z,92176.41
2022-09-07T01:23:03.880Z,92176.53
2022-09-07T01:25:51.474Z,92181.16
2022-09-07T01:28:39.064Z,92172.88
2022-09-07T01:31:26.698Z,92182.72
2022-09-07T01:34:14.321Z,92181.94
2022-09-07T01:37:01.950Z,92182.88
2022-09-07T01:39:49.628Z,92191.00
2022-09-07T01:42:37.317Z,92184.97
2022-09-07T01:45:24.913Z,92183.97
2022-09-07T01:48:12.529Z,92171.63
2022-09-07T01:51:00.112Z,92181.00
2022-09-07T01:53:47.778Z,92173.78
2022-09-07T01:56:35.372Z,92187.38
2022-09-07T01:59:23.025Z,92188.25
2022-09-07T02:02:10.622Z,92182.47
2022-09-07T02:04:58.237Z,92182.50
2022-09-07T02:07:45.825Z,92173.47
2022-09-07T02:10:33.522Z,92174.88
2022-09-07T02:13:21.117Z,92172.84
2022-09-07T02:16:08.793Z,92169.09
2022-09-07T02:18:56.425Z,92171.78
2022-09-07T02:21:44.180Z,92172.44
2022-09-07T02:24:31.763Z,92177.50
2022-09-07T02:27:19.363Z,92170.63
2022-09-07T02:30:06.972Z,92173.63
2022-09-07T02:32:54.608Z,92172.56
2022-09-07T02:35:42.207Z,92167.38
2022-09-07T02:38:29.861Z,92159.78
2022-09-07T02:41:17.526Z,92155.84
2022-09-07T02:44:05.112Z,92156.81
2022-09-07T02:46:52.709Z,92164.94
2022-09-07T02:49:40.326Z,92162.03
2022-09-07T02:52:27.918Z,92163.50
2022-09-07T02:55:15.524Z,92163.00
2022-09-07T02:58:03.105Z,92166.78
2022-09-07T03:00:50.725Z,92165.78
2022-09-07T03:03:38.307Z,92166.78
2022-09-07T03:06:25.903Z,92155.22
2022-09-07T03:09:13.479Z,92161.91
2022-09-07T03:12:01.093Z,92154.97
2022-09-07T03:14:48.719Z,92149.13
2022-09-07T03:17:36.302Z,92145.44
2022-09-07T03:20:23.896Z,92153.78
2022-09-07T03:23:11.486Z,92150.41
2022-09-07T03:26:00.227Z,92156.06
2022-09-07T03:28:47.809Z,92149.97
2022-09-07T03:31:35.455Z,92146.84
2022-09-07T03:34:23.041Z,92143.03
2022-09-07T03:37:10.649Z,92138.84
2022-09-07T03:39:58.316Z,92138.78
2022-09-07T03:42:46.053Z,92138.53
2022-09-07T03:45:33.654Z,92133.84
2022-09-07T03:48:21.246Z,92139.09
2022-09-07T03:51:08.829Z,92130.81
2022-09-07T03:53:56.450Z,92129.25
2022-09-07T03:56:44.032Z,92119.88
2022-09-07T03:59:31.631Z,92114.47
2022-09-07T04:02:19.292Z,92119.44
2022-09-07T04:05:08.931Z,92127.19
2022-09-07T04:07:56.536Z,92131.75
2022-09-07T04:10:44.118Z,92120.66
2022-09-07T04:13:31.827Z,92118.09
2022-09-07T04:16:19.460Z,92111.31
2022-09-07T04:19:07.137Z,92119.78
2022-09-07T04:21:54.708Z,92124.84
2022-09-07T04:24:42.328Z,92130.50
2022-09-07T04:27:29.979Z,92124.59
2022-09-07T04:30:17.543Z,92127.91
2022-09-07T04:33:05.138Z,92113.94
2022-09-07T04:35:52.719Z,92114.78
2022-09-07T04:38:40.322Z,92125.59
2022-09-07T04:41:27.906Z,92115.59
2022-09-07T04:44:17.118Z,92126.66
2022-09-07T04:47:04.902Z,92127.44
2022-09-07T04:49:52.507Z,92132.44
2022-09-07T04:52:40.138Z,92127.44
2022-09-07T04:55:27.717Z,92119.13
2022-09-07T04:58:15.341Z,92119.91
2022-09-07T05:01:03.053Z,92113.56
2022-09-07T05:03:50.735Z,92105.09
2022-09-07T05:06:38.334Z,92108.19
2022-09-07T05:09:25.937Z,92110.53
2022-09-07T05:12:13.555Z,92116.09
2022-09-07T05:15:01.139Z,92113.84
2022-09-07T05:17:48.850Z,92114.13
2022-09-07T05:20:36.445Z,92106.81
2022-09-07T05:23:24.127Z,92104.38
2022-09-07T05:26:11.716Z,92112.94
2022-09-07T05:32:06.860Z,92127.84
2022-09-07T05:34:54.471Z,92134.78
2022-09-07T05:37:42.049Z,92138.13
2022-09-07T05:40:29.653Z,92143.91
2022-09-07T05:43:17.246Z,92146.69
2022-09-07T05:46:04.881Z,92145.22
2022-09-07T05:48:52.548Z,92144.56
2022-09-07T05:51:40.224Z,92149.22
2022-09-07T05:54:27.809Z,92139.94
2022-09-07T05:57:17.764Z,92138.50
2022-09-07T06:00:05.368Z,92139.44
2022-09-07T06:02:53.051Z,92139.84
2022-09-07T06:05:40.696Z,92145.28
2022-09-07T06:08:30.358Z,92148.22
2022-09-07T06:11:18.100Z,92152.91
2022-09-07T06:14:05.703Z,92151.75
2022-09-07T06:16:53.341Z,92151.47
2022-09-07T06:19:41.017Z,92148.97
2022-09-07T06:22:30.986Z,92150.59
2022-09-07T06:25:18.865Z,92152.25
2022-09-07T06:28:06.561Z,92165.53
2022-09-07T06:30:54.144Z,92159.81
2022-09-07T06:33:43.802Z,92162.03
2022-09-07T06:36:31.393Z,92162.47
2022-09-07T06:39:18.995Z,92161.75
2022-09-07T06:42:06.590Z,92161.41
2022-09-07T06:44:54.239Z,92169.44
2022-09-07T06:47:41.834Z,92158.31
2022-09-07T06:50:29.456Z,92163.19
2022-09-07T06:56:24.592Z,92158.00
2022-09-07T06:59:12.176Z,92152.75
2022-09-07T07:01:59.862Z,92145.53
2022-09-07T07:04:47.444Z,92142.16
2022-09-07T07:07:35.139Z,92144.72
2022-09-07T07:10:24.933Z,92145.91
2022-09-07T07:13:12.781Z,92147.22
2022-09-07T07:16:00.412Z,92151.25
2022-09-07T07:18:48.067Z,92161.25
2022-09-07T07:22:02.001Z,92150.06
2022-09-07T07:24:43.212Z,92153.09
2022-09-07T07:27:30.796Z,92159.34
2022-09-07T07:30:18.407Z,92168.75
2022-09-07T07:33:07.231Z,92169.81
2022-09-07T07:35:54.922Z,92165.00
2022-09-07T07:44:40.000Z,92153.69
2022-09-07T07:47:27.653Z,92147.88
2022-09-07T07:50:31.627Z,92145.72
2022-09-07T07:56:27.842Z,92147.28
2022-09-07T07:59:15.990Z,92142.66
2022-09-07T08:02:03.794Z,92140.25
2022-09-07T08:04:51.456Z,92130.78
2022-09-07T08:07:39.026Z,92123.22
2022-09-07T08:10:26.621Z,92133.31
2022-09-07T08:13:14.155Z,92125.25
2022-09-07T08:16:01.760Z,92117.56
2022-09-07T08:18:49.368Z,92103.41
2022-09-07T08:21:37.046Z,92107.56
2022-09-07T08:24:26.601Z,92108.88
2022-09-07T08:27:14.159Z,92121.81
2022-09-07T08:30:01.697Z,92120.97
2022-09-07T08:32:49.382Z,92130.94
2022-09-07T08:35:36.942Z,92119.84
2022-09-07T08:38:24.497Z,92124.03
2022-09-07T08:41:12.079Z,92117.13
2022-09-07T08:43:59.622Z,92120.03
2022-09-07T08:46:47.220Z,92111.38
2022-09-07T08:49:34.808Z,92119.63
2022-09-07T08:52:22.359Z,92121.28
2022-09-07T08:55:09.917Z,92123.03
2022-09-07T08:57:57.701Z,92118.09
2022-09-07T09:00:45.268Z,92118.53
2022-09-07T09:03:33.046Z,92108.69
2022-09-07T09:06:20.739Z,92110.91
2022-09-07T09:09:08.496Z,92117.00
2022-09-07T09:11:56.057Z,92114.97
2022-09-07T09:14:43.617Z,92113.69
2022-09-07T09:17:31.208Z,92111.09
2022-09-07T09:20:18.851Z,92105.97
2022-09-07T09:23:06.391Z,92099.09
2022-09-07T09:25:53.954Z,92102.47
2022-09-07T09:28:41.546Z,92094.28
2022-09-07T09:31:29.160Z,92090.72
2022-09-07T09:34:16.807Z,92102.03
2022-09-07T09:37:04.335Z,92096.59
2022-09-07T09:39:54.448Z,92090.25
2022-09-07T09:42:43.708Z,92091.66
2022-09-07T09:46:11.776Z,92090.53
2022-09-07T09:48:38.788Z,92081.34
2022-09-07T09:54:33.823Z,92076.91
2022-09-07T09:57:21.396Z,92073.91
2022-09-07T10:00:12.572Z,92082.41
2022-09-07T10:06:09.997Z,92068.38
2022-09-07T10:08:57.558Z,92061.53
2022-09-07T10:14:52.698Z,92060.06
2022-09-07T10:17:40.271Z,92060.63
2022-09-07T10:20:27.819Z,92050.41
2022-09-07T10:23:15.380Z,92055.66
2022-09-07T10:26:02.914Z,92054.75
2022-09-07T10:31:58.015Z,92054.44
2022-09-07T10:34:45.577Z,92049.94
2022-09-07T10:37:33.155Z,92047.88
2022-09-07T10:40:20.921Z,92040.97
2022-09-07T10:43:24.023Z,92037.66
2022-09-07T10:46:11.884Z,92040.41
2022-09-07T10:48:59.838Z,92040.84
2022-09-07T10:51:47.381Z,92029.78
2022-09-07T10:54:35.164Z,92032.97
2022-09-07T10:57:22.984Z,92023.72
2022-09-07T11:00:10.876Z,92028.41
2022-09-07T11:06:06.105Z,92029.78
2022-09-07T11:12:01.970Z,92026.06
2022-09-07T11:14:50.184Z,92021.34
2022-09-07T11:17:37.751Z,92018.84
2022-09-07T11:20:25.298Z,92024.56
2022-09-07T11:23:12.860Z,92018.59
2022-09-07T11:26:00.400Z,92018.44
2022-09-07T11:28:47.991Z,92008.34
2022-09-07T11:31:35.600Z,92002.06
2022-09-07T11:34:24.646Z,92000.78
2022-09-07T11:37:12.387Z,92010.88
2022-09-07T11:40:00.056Z,91997.34
2022-09-07T11:42:47.677Z,91990.34
2022-09-07T11:45:35.283Z,91987.03
2022-09-07T11:48:22.831Z,91983.97
2022-09-07T11:51:10.402Z,91978.09
2022-09-07T11:53:57.949Z,91967.50
2022-09-07T11:56:46.010Z,91960.97
2022-09-07T11:59:36.747Z,91960.91
2022-09-07T12:02:42.084Z,91937.69
2022-09-07T12:05:32.127Z,91940.66
2022-09-07T12:08:19.725Z,91942.53
2022-09-07T12:11:07.272Z,91943.25
2022-09-07T12:13:54.932Z,91946.19
2022-09-07T12:16:44.450Z,91937.06
2022-09-07T12:19:32.023Z,91926.81
2022-09-07T12:22:19.581Z,91929.03
2022-09-07T12:25:07.166Z,91926.81
2022-09-07T12:27:54.733Z,91919.97
2022-09-07T12:30:42.332Z,91915.84
2022-09-07T12:33:29.927Z,91908.38
2022-09-07T12:36:17.480Z,91905.44
2022-09-07T12:39:05.020Z,91895.09
2022-09-07T12:42:31.944Z,91902.13
2022-09-07T12:45:00.308Z,91900.75
2022-09-07T12:47:49.283Z,91897.97
2022-09-07T12:50:39.438Z,91896.94
2022-09-07T12:53:27.846Z,91910.38
2022-09-07T12:56:16.010Z,91914.97
2022-09-07T12:59:04.076Z,91918.88
2022-09-07T13:01:51.686Z,91913.50
2022-09-07T13:04:39.354Z,91909.50
2022-09-07T13:07:26.902Z,91903.72
2022-09-07T13:10:14.558Z,91894.75
2022-09-07T13:13:02.154Z,91882.69
2022-09-07T13:15:49.765Z,91879.69
2022-09-07T13:18:38.753Z,91878.09
2022-09-07T13:21:26.320Z,91884.13
2022-09-07T13:27:21.385Z,91874.84
2022-09-07T13:30:08.946Z,91867.28
2022-09-07T13:33:11.757Z,91865.81
2022-09-07T13:35:59.330Z,91871.81
2022-09-07T13:38:47.130Z,91885.13
2022-09-07T13:41:34.673Z,91872.88
2022-09-07T13:44:25.958Z,91872.88
2022-09-07T13:47:14.250Z,91869.59
2022-09-07T13:50:01.870Z,91864.78
2022-09-07T13:52:49.439Z,91866.25
2022-09-07T13:55:37.001Z,91876.03
2022-09-07T13:58:24.569Z,91876.91
2022-09-07T14:01:12.203Z,91868.41
2022-09-07T14:03:59.829Z,91863.72
2022-09-07T14:06:47.399Z,91863.63
2022-09-07T14:09:34.953Z,91859.88
2022-09-07T14:12:22.515Z,91858.25
2022-09-07T14:15:10.073Z,91847.56
2022-09-07T14:17:57.639Z,91851.38
2022-09-07T14:20:45.448Z,91839.75
2022-09-07T14:23:33.120Z,91836.31
2022-09-07T14:26:20.801Z,91840.66
2022-09-07T14:29:08.387Z,91833.53
2022-09-07T14:31:55.961Z,91836.09
2022-09-07T14:34:43.521Z,91837.59
2022-09-07T14:37:31.109Z,91842.47
2022-09-07T14:40:18.793Z,91845.03
2022-09-07T14:43:06.391Z,91837.44
2022-09-07T14:45:54.002Z,91831.03
2022-09-07T14:48:41.951Z,91820.41
2022-09-07T14:51:35.626Z,91812.69
2022-09-07T14:54:24.257Z,91807.09
2022-09-07T14:57:11.821Z,91800.09
2022-09-07T14:59:59.339Z,91792.25
2022-09-07T15:02:46.918Z,91792.69
2022-09-07T15:05:34.513Z,91785.63
2022-09-07T15:08:22.165Z,91796.16
2022-09-07T15:14:17.219Z,91808.22
2022-09-07T15:20:09.658Z,91812.06
2022-09-07T15:22:57.214Z,91817.44
2022-09-07T15:25:49.884Z,91813.47
2022-09-07T15:31:56.821Z,91803.91
2022-09-07T15:34:28.949Z,91806.63
2022-09-07T15:36:57.173Z,91820.66
2022-09-07T15:39:25.319Z,91832.63
2022-09-07T15:41:53.464Z,91841.97
2022-09-07T15:44:25.178Z,91843.63
2022-09-07T15:49:45.784Z,91830.06
2022-09-07T15:52:16.762Z,91827.94
2022-09-07T15:54:44.328Z,91838.22
2022-09-07T16:00:00.035Z,91832.53
2022-09-07T16:05:15.480Z,91835.66
2022-09-07T16:10:31.665Z,91832.44
2022-09-07T16:13:01.760Z,91823.31
2022-09-07T16:15:30.242Z,91819.38
2022-09-07T16:17:57.736Z,91816.84
2022-09-07T16:20:25.161Z,91824.19
2022-09-07T16:25:40.565Z,91819.22
2022-09-07T16:28:08.335Z,91818.97
2022-09-07T16:30:35.857Z,91814.34
2022-09-07T16:33:03.420Z,91817.34
2022-09-07T16:35:31.938Z,91806.31
2022-09-07T16:40:47.419Z,91804.59
2022-09-07T16:43:16.860Z,91806.28
2022-09-07T16:48:34.109Z,91810.50
2022-09-07T16:51:02.872Z,91811.84
2022-09-07T16:53:30.329Z,91801.22
2022-09-07T16:56:16.885Z,91797.84
2022-09-07T16:59:04.697Z,91783.94
2022-09-07T17:01:52.277Z,91794.78
2022-09-07T17:04:39.995Z,91790.53
2022-09-07T17:07:27.585Z,91780.91
2022-09-07T17:10:15.136Z,91774.78
2022-09-07T17:13:06.287Z,91767.44
2022-09-07T17:15:56.349Z,91774.31
2022-09-07T17:21:53.432Z,91753.44
2022-09-07T17:24:41.013Z,91738.09
2022-09-07T17:27:28.574Z,91744.63
2022-09-07T17:30:16.233Z,91735.13
2022-09-07T17:33:03.829Z,91717.53
2022-09-07T17:35:51.444Z,91707.94
2022-09-07T17:41:46.537Z,91703.88
2022-09-07T17:44:38.065Z,91708.66
2022-09-07T17:47:26.093Z,91717.22
2022-09-07T17:50:13.653Z,91713.88
2022-09-07T17:53:01.210Z,91704.59
2022-09-07T17:55:48.752Z,91706.78
2022-09-07T17:58:36.319Z,91711.41
2022-09-07T18:01:23.942Z,91720.50
2022-09-07T18:04:11.587Z,91717.81
2022-09-07T18:06:59.228Z,91714.91
2022-09-07T18:09:46.844Z,91712.44
2022-09-07T18:12:34.444Z,91696.06
2022-09-07T18:15:21.998Z,91690.06
2022-09-07T18:18:09.532Z,91691.25
2022-09-07T18:20:57.115Z,91692.84
2022-09-07T18:23:44.665Z,91692.09
2022-09-07T18:26:32.259Z,91701.66
2022-09-07T18:29:28.914Z,91711.47
2022-09-07T18:32:18.581Z,91714.53
2022-09-07T18:35:06.114Z,91694.34
2022-09-07T18:37:53.684Z,91686.53
2022-09-07T18:40:43.250Z,91675.50
2022-09-07T18:43:31.014Z,91668.59
2022-09-07T18:46:18.820Z,91663.84
2022-09-07T18:49:06.411Z,91661.75
2022-09-07T18:55:01.482Z,91663.03
2022-09-07T18:57:49.085Z,91657.13
2022-09-07T19:00:36.648Z,91659.28
2022-09-07T19:03:24.250Z,91656.47
2022-09-07T19:06:11.819Z,91621.28
2022-09-07T19:08:59.394Z,91545.50
2022-09-07T19:11:48.955Z,91685.53
2022-09-07T19:14:36.646Z,91822.06
2022-09-07T19:17:24.235Z,91924.53
2022-09-07T19:20:11.799Z,91742.22
2022-09-07T19:22:59.352Z,91807.44
2022-09-07T19:25:46.912Z,91834.56
2022-09-07T19:28:34.466Z,91853.66
2022-09-07T19:31:22.069Z,91894.50
2022-09-07T19:34:09.663Z,91881.03
2022-09-07T19:36:57.231Z,91859.38
2022-09-07T19:39:44.822Z,91824.31
2022-09-07T19:42:32.477Z,91804.81
2022-09-07T19:45:20.041Z,91795.72
2022-09-07T19:48:07.597Z,91813.31
2022-09-07T19:50:55.149Z,91810.44
2022-09-07T19:53:42.721Z,91793.91
2022-09-07T19:56:30.291Z,91796.50
2022-09-07T19:59:17.852Z,91794.78
2022-09-07T20:02:05.431Z,91793.53
2022-09-07T20:04:53.001Z,91781.38
2022-09-07T20:07:40.559Z,91770.22
2022-09-07T20:10:28.133Z,91778.91
2022-09-07T20:13:17.672Z,91770.25
2022-09-07T20:16:05.264Z,91776.59
2022-09-07T20:18:52.845Z,91773.94
2022-09-07T20:21:40.425Z,91765.34
2022-09-07T20:24:27.958Z,91762.09
2022-09-07T20:27:15.520Z,91759.81
2022-09-07T20:30:03.109Z,91751.75
2022-09-07T20:32:50.659Z,91763.13
2022-09-07T20:35:38.236Z,91761.44
2022-09-07T20:38:25.800Z,91760.03
2022-09-07T20:41:13.354Z,91743.47
2022-09-07T20:44:00.942Z,91738.50
2022-09-07T20:46:48.577Z,91725.13
2022-09-07T20:49:36.324Z,91721.63
2022-09-07T20:52:23.917Z,91722.53
2022-09-07T20:55:11.457Z,91724.94
2022-09-07T20:57:59.017Z,91704.34
2022-09-07T21:00:46.627Z,91693.91
2022-09-07T21:03:34.268Z,91713.63
2022-09-07T21:06:22.038Z,91732.06
2022-09-07T21:09:09.599Z,91731.81
2022-09-07T21:11:57.341Z,91724.03
2022-09-07T21:14:44.942Z,91717.03
2022-09-07T21:17:32.498Z,91713.28
2022-09-07T21:20:20.084Z,91715.41
2022-09-07T21:23:07.630Z,91705.75
2022-09-07T21:25:55.189Z,91695.28
2022-09-07T21:28:42.738Z,91687.25
2022-09-07T21:31:30.418Z,91681.47
2022-09-07T21:34:17.967Z,91696.28
2022-09-07T21:37:05.557Z,91711.47
2022-09-07T21:39:53.182Z,91714.13
2022-09-07T21:42:40.772Z,91681.69
2022-09-07T21:45:28.428Z,91680.72
2022-09-07T21:48:15.986Z,91661.47
2022-09-07T21:51:12.511Z,91666.09
2022-09-07T21:54:00.067Z,91699.78
2022-09-07T21:57:06.529Z,91766.28
2022-09-07T21:59:54.115Z,91831.72
2022-09-07T22:02:41.713Z,91886.53
2022-09-07T22:05:29.279Z,91861.06
2022-09-07T22:08:16.824Z,91850.81
2022-09-07T22:11:04.479Z,91860.56
2022-09-07T22:13:52.037Z,91876.44
2022-09-07T22:16:41.690Z,91871.88
2022-09-07T22:19:29.330Z,91861.31
2022-09-07T22:22:16.872Z,91853.88
2022-09-07T22:25:04.437Z,91830.47
2022-09-07T22:27:51.975Z,91831.69
2022-09-07T22:30:39.521Z,91826.56
2022-09-07T22:33:27.125Z,91813.56
2022-09-07T22:36:14.714Z,91818.81
2022-09-07T22:39:03.392Z,91829.00
2022-09-07T22:41:50.925Z,91823.94
2022-09-07T22:44:38.486Z,91829.81
2022-09-07T22:47:26.031Z,91823.97
2022-09-07T22:50:13.589Z,91817.28
2022-09-07T22:53:01.162Z,91816.88
2022-09-07T22:55:48.724Z,91833.81
2022-09-07T22:58:36.260Z,91846.13
2022-09-07T23:01:23.971Z,91859.03
2022-09-07T23:04:11.579Z,91863.41
2022-09-07T23:06:59.290Z,91872.47
2022-09-07T23:09:46.920Z,91881.31
2022-09-07T23:12:34.590Z,91882.44
2022-09-07T23:15:22.140Z,91887.03
2022-09-07T23:18:09.700Z,91884.97
2022-09-07T23:21:00.307Z,91891.28
2022-09-07T23:23:48.219Z,91886.28
2022-09-07T23:26:35.776Z,91877.44
2022-09-07T23:29:23.304Z,91871.63
2022-09-07T23:32:10.857Z,91855.28
2022-09-07T23:34:58.430Z,91877.94
2022-09-07T23:37:45.968Z,91883.50
2022-09-07T23:40:33.517Z,91886.53
2022-09-07T23:43:21.071Z,91882.84
2022-09-07T23:46:08.646Z,91891.97
2022-09-07T23:48:56.248Z,91888.34
2022-09-07T23:51:43.787Z,91885.91
2022-09-07T23:54:31.342Z,91879.13
2022-09-07T23:57:18.870Z,91889.75
